createdAt,value
2018-12-29T00:01:34.598Z,11.72
2018-12-29T00:04:06.248Z,11.83
2018-12-29T00:06:37.725Z,11.83
2018-12-29T00:09:09.290Z,11.60
2018-12-29T00:11:40.622Z,11.63
2018-12-29T00:14:12.507Z,11.63
2018-12-29T00:16:44.305Z,11.62
2018-12-29T00:19:15.816Z,11.62
2018-12-29T00:21:47.075Z,11.58
2018-12-29T00:24:19.002Z,11.61
2018-12-29T00:26:50.514Z,11.63
2018-12-29T00:29:22.539Z,11.65
2018-12-29T00:31:54.086Z,11.60
2018-12-29T00:34:25.763Z,11.60
2018-12-29T00:36:57.134Z,11.75
2018-12-29T00:39:29.035Z,11.66
2018-12-29T00:42:00.234Z,11.48
2018-12-29T00:44:31.660Z,11.59
2018-12-29T00:47:02.991Z,11.59
2018-12-29T00:49:34.358Z,11.54
2018-12-29T00:52:06.626Z,11.51
2018-12-29T00:54:38.240Z,11.51
2018-12-29T00:57:09.543Z,11.41
2018-12-29T00:59:41.661Z,11.54
2018-12-29T01:02:12.866Z,11.57
2018-12-29T01:04:44.567Z,11.55
2018-12-29T01:07:15.719Z,11.58
2018-12-29T01:09:47.297Z,11.63
2018-12-29T01:12:18.492Z,11.63
2018-12-29T01:14:49.739Z,11.72
2018-12-29T01:17:21.595Z,11.51
2018-12-29T01:19:53.241Z,11.51
2018-12-29T01:22:24.671Z,11.58
2018-12-29T01:24:56.399Z,11.58
2018-12-29T01:27:27.558Z,11.43
2018-12-29T01:30:00.299Z,11.44
2018-12-29T01:32:32.807Z,11.44
2018-12-29T01:35:04.608Z,11.35
2018-12-29T01:37:35.775Z,11.29
2018-12-29T01:40:07.505Z,11.26
2018-12-29T01:42:39.062Z,11.26
2018-12-29T01:45:17.138Z,11.21
2018-12-29T01:47:43.661Z,11.14
2018-12-29T01:50:14.965Z,11.19
2018-12-29T01:52:46.321Z,11.27
2018-12-29T01:55:17.781Z,11.23
2018-12-29T01:57:49.017Z,11.25
2018-12-29T02:00:21.268Z,11.26
2018-12-29T02:02:52.586Z,11.26
2018-12-29T02:05:23.931Z,11.21
2018-12-29T02:07:55.047Z,11.25
2018-12-29T02:10:26.571Z,11.34
2018-12-29T02:12:57.684Z,11.35
2018-12-29T02:15:29.841Z,11.35
2018-12-29T02:18:01.630Z,11.37
2018-12-29T02:20:33.225Z,11.43
2018-12-29T02:23:04.276Z,11.65
2018-12-29T02:25:36.061Z,11.67
2018-12-29T02:28:07.660Z,11.73
2018-12-29T02:30:39.985Z,11.73
2018-12-29T02:33:11.448Z,11.90
2018-12-29T02:35:42.935Z,11.99
2018-12-29T02:38:13.958Z,11.99
2018-12-29T02:40:45.296Z,12.03
2018-12-29T02:43:16.464Z,12.06
2018-12-29T02:45:47.806Z,12.70
2018-12-29T02:48:19.224Z,12.70
2018-12-29T02:50:50.788Z,13.77
2018-12-29T02:53:22.055Z,13.77
2018-12-29T02:55:53.506Z,13.58
2018-12-29T02:58:25.706Z,13.59
2018-12-29T03:00:58.092Z,13.67
2018-12-29T03:03:29.673Z,13.67
2018-12-29T03:06:01.605Z,13.92
2018-12-29T03:08:37.377Z,13.92
2018-12-29T03:11:08.986Z,14.07
2018-12-29T03:13:40.529Z,14.07
2018-12-29T03:16:12.093Z,14.04
2018-12-29T03:18:45.106Z,13.98
2018-12-29T03:21:16.491Z,14.02
2018-12-29T03:23:47.715Z,14.02
2018-12-29T03:26:19.310Z,13.99
2018-12-29T03:28:51.010Z,14.00
2018-12-29T03:31:22.862Z,14.01
2018-12-29T03:33:54.271Z,14.05
2018-12-29T03:36:25.710Z,14.10
2018-12-29T03:38:56.887Z,14.13
2018-12-29T03:41:28.755Z,14.19
2018-12-29T03:44:00.310Z,14.26
2018-12-29T03:46:32.102Z,14.30
2018-12-29T03:49:03.662Z,14.17
2018-12-29T03:51:35.774Z,14.17
2018-12-29T03:54:07.175Z,14.19
2018-12-29T03:56:42.034Z,14.23
2018-12-29T03:59:13.535Z,14.45
2018-12-29T04:01:45.430Z,14.44
2018-12-29T04:04:16.857Z,14.44
2018-12-29T04:06:48.529Z,14.53
2018-12-29T04:09:36.243Z,14.61
2018-12-29T04:12:22.206Z,14.62
2018-12-29T04:14:53.804Z,14.61
2018-12-29T04:17:25.390Z,14.61
2018-12-29T04:19:57.042Z,14.47
2018-12-29T04:22:28.701Z,14.67
2018-12-29T04:25:00.384Z,14.80
2018-12-29T04:27:32.070Z,14.70
2018-12-29T04:30:03.421Z,14.70
2018-12-29T04:32:35.529Z,14.61
2018-12-29T04:35:07.183Z,14.60
2018-12-29T04:37:38.804Z,14.63
2018-12-29T04:40:10.025Z,14.63
2018-12-29T04:42:41.510Z,14.77
2018-12-29T04:45:13.001Z,14.85
2018-12-29T04:47:44.371Z,14.73
2018-12-29T04:50:15.782Z,14.73
2018-12-29T04:52:47.345Z,14.79
2018-12-29T04:55:18.546Z,14.89
2018-12-29T04:57:49.983Z,15.00
2018-12-29T05:00:21.446Z,14.97
2018-12-29T05:02:53.615Z,14.96
2018-12-29T05:05:25.224Z,14.99
2018-12-29T05:07:56.797Z,14.91
2018-12-29T05:10:28.061Z,14.91
2018-12-29T05:12:59.510Z,14.94
2018-12-29T05:15:30.839Z,15.05
2018-12-29T05:18:02.692Z,15.05
2018-12-29T05:20:34.576Z,15.15
2018-12-29T05:23:06.340Z,15.18
2018-12-29T05:25:37.586Z,15.14
2018-12-29T05:28:09.247Z,15.14
2018-12-29T05:30:40.733Z,15.17
2018-12-29T05:33:12.522Z,15.20
2018-12-29T05:35:43.942Z,15.12
2018-12-29T05:38:15.788Z,15.12
2018-12-29T05:40:47.184Z,15.26
2018-12-29T05:43:18.658Z,15.39
2018-12-29T05:45:50.225Z,15.39
2018-12-29T05:48:22.065Z,15.68
2018-12-29T05:50:53.275Z,15.30
2018-12-29T05:53:24.892Z,15.77
2018-12-29T05:55:56.214Z,15.77
2018-12-29T05:58:27.982Z,15.64
2018-12-29T06:00:59.508Z,15.64
2018-12-29T06:03:31.368Z,15.82
2018-12-29T06:06:05.236Z,15.60
2018-12-29T06:08:37.671Z,16.01
2018-12-29T06:11:09.077Z,16.01
2018-12-29T06:13:41.152Z,15.77
2018-12-29T06:16:12.223Z,15.99
2018-12-29T06:18:50.448Z,15.67
2018-12-29T06:21:24.399Z,15.67
2018-12-29T06:23:56.374Z,15.83
2018-12-29T06:26:27.910Z,15.83
2018-12-29T06:28:59.444Z,15.85
2018-12-29T06:31:30.566Z,15.85
2018-12-29T06:34:02.505Z,15.79
2018-12-29T06:36:33.712Z,15.98
2018-12-29T06:39:11.303Z,15.83
2018-12-29T06:41:42.839Z,15.69
2018-12-29T06:44:14.209Z,15.69
2018-12-29T06:46:45.726Z,16.38
2018-12-29T06:49:17.479Z,16.00
2018-12-29T06:51:49.098Z,16.00
2018-12-29T06:54:21.792Z,16.14
2018-12-29T06:56:56.266Z,16.20
2018-12-29T06:59:27.795Z,16.05
2018-12-29T07:01:59.023Z,16.10
2018-12-29T07:04:34.155Z,16.64
2018-12-29T07:07:12.587Z,16.64
2018-12-29T07:09:44.822Z,16.32
2018-12-29T07:12:21.181Z,16.40
2018-12-29T07:14:57.630Z,16.86
2018-12-29T07:17:30.369Z,16.86
2018-12-29T07:20:01.727Z,16.74
2018-12-29T07:22:34.473Z,16.39
2018-12-29T07:25:07.251Z,16.57
2018-12-29T07:27:38.448Z,16.34
2018-12-29T07:30:11.581Z,16.34
2018-12-29T07:32:43.176Z,16.29
2018-12-29T07:35:16.918Z,16.29
2018-12-29T07:37:48.712Z,16.65
2018-12-29T07:40:20.171Z,16.65
2018-12-29T07:42:51.519Z,16.52
2018-12-29T07:45:23.014Z,16.52
2018-12-29T07:47:54.250Z,16.68
2018-12-29T07:50:25.536Z,16.74
2018-12-29T07:52:57.129Z,16.50
2018-12-29T07:55:29.346Z,16.50
2018-12-29T07:58:00.743Z,16.62
2018-12-29T08:00:31.887Z,16.62
2018-12-29T08:03:03.318Z,16.93
2018-12-29T08:05:35.021Z,16.75
2018-12-29T08:08:06.221Z,17.33
2018-12-29T08:10:38.822Z,17.16
2018-12-29T08:13:10.672Z,17.16
2018-12-29T08:15:42.192Z,16.89
2018-12-29T08:18:14.637Z,16.90
2018-12-29T08:20:46.430Z,16.90
2018-12-29T08:23:17.560Z,16.80
2018-12-29T08:25:49.262Z,16.80
2018-12-29T08:28:23.598Z,16.97
2018-12-29T08:30:55.424Z,16.96
2018-12-29T08:33:26.896Z,16.96
2018-12-29T08:36:04.993Z,17.15
2018-12-29T08:38:37.451Z,16.72
2018-12-29T08:41:09.021Z,17.13
2018-12-29T08:43:40.249Z,17.27
2018-12-29T08:46:11.938Z,17.54
2018-12-29T08:48:44.667Z,16.95
2018-12-29T08:51:15.733Z,16.95
2018-12-29T08:53:47.756Z,16.81
2018-12-29T08:56:19.149Z,16.97
2018-12-29T08:58:50.372Z,16.92
2018-12-29T09:01:21.528Z,16.92
2018-12-29T09:03:52.871Z,17.23
2018-12-29T09:06:24.516Z,17.15
2018-12-29T09:08:55.958Z,17.15
2018-12-29T09:14:46.306Z,17.18
2018-12-29T09:17:19.131Z,16.90
2018-12-29T09:20:08.542Z,17.24
2018-12-29T09:22:41.836Z,17.25
2018-12-29T09:25:13.254Z,17.00
2018-12-29T09:27:45.321Z,17.00
2018-12-29T09:30:17.032Z,17.07
2018-12-29T09:32:48.237Z,17.07
2018-12-29T09:35:19.415Z,17.33
2018-12-29T09:37:51.463Z,17.07
2018-12-29T09:40:23.174Z,17.02
2018-12-29T09:42:55.962Z,17.12
2018-12-29T09:45:27.914Z,17.22
2018-12-29T09:47:59.636Z,17.22
2018-12-29T09:50:32.177Z,17.13
2018-12-29T09:53:03.583Z,17.38
2018-12-29T09:55:35.178Z,17.06
2018-12-29T09:58:06.402Z,17.06
2018-12-29T10:00:37.867Z,17.04
2018-12-29T10:03:09.387Z,17.26
2018-12-29T10:05:43.031Z,17.07
2018-12-29T10:08:16.068Z,17.13
2018-12-29T10:10:48.527Z,17.05
2018-12-29T10:13:21.970Z,17.12
2018-12-29T10:15:53.448Z,17.10
2018-12-29T10:18:24.971Z,17.10
2018-12-29T10:20:56.262Z,17.14
2018-12-29T10:23:27.814Z,17.11
2018-12-29T10:25:59.034Z,17.26
2018-12-29T10:28:30.216Z,17.26
2018-12-29T10:31:01.746Z,17.19
2018-12-29T10:33:32.924Z,17.22
2018-12-29T10:36:04.211Z,17.22
2018-12-29T10:38:37.021Z,17.26
2018-12-29T10:41:08.509Z,17.25
2018-12-29T10:43:39.777Z,17.25
2018-12-29T10:46:11.156Z,17.16
2018-12-29T10:48:42.768Z,17.17
2018-12-29T10:51:14.022Z,17.21
2018-12-29T10:53:45.601Z,17.30
2018-12-29T10:56:16.830Z,17.20
2018-12-29T10:58:48.378Z,17.20
2018-12-29T11:01:20.029Z,17.25
2018-12-29T11:03:51.225Z,17.25
2018-12-29T11:06:22.541Z,17.27
2018-12-29T11:08:54.588Z,17.25
2018-12-29T11:11:26.344Z,17.21
2018-12-29T11:13:57.725Z,17.21
2018-12-29T11:16:31.219Z,17.21
2018-12-29T11:19:02.645Z,17.25
2018-12-29T11:21:33.793Z,17.25
2018-12-29T11:24:05.369Z,17.27
2018-12-29T11:26:36.731Z,17.27
2018-12-29T11:29:08.025Z,17.24
2018-12-29T11:31:39.687Z,17.30
2018-12-29T11:34:11.371Z,17.31
2018-12-29T11:36:42.772Z,17.31
2018-12-29T11:39:14.615Z,17.34
2018-12-29T11:41:45.917Z,17.33
2018-12-29T11:44:17.588Z,17.36
2018-12-29T11:46:49.338Z,17.35
2018-12-29T11:49:20.930Z,17.31
2018-12-29T11:51:52.960Z,17.34
2018-12-29T11:54:25.292Z,17.34
2018-12-29T11:56:57.256Z,17.36
2018-12-29T11:59:28.653Z,17.33
2018-12-29T12:02:00.083Z,17.26
2018-12-29T12:04:32.162Z,17.26
2018-12-29T12:07:03.745Z,17.23
2018-12-29T12:09:36.020Z,17.23
2018-12-29T12:12:07.442Z,17.27
2018-12-29T12:14:39.117Z,17.23
2018-12-29T12:17:10.868Z,17.23
2018-12-29T12:19:42.368Z,17.23
2018-12-29T12:22:13.900Z,17.23
2018-12-29T12:24:45.377Z,17.24
2018-12-29T12:27:17.068Z,17.26
2018-12-29T12:29:49.018Z,17.26
2018-12-29T12:32:21.124Z,17.27
2018-12-29T12:34:53.360Z,17.27
2018-12-29T12:37:24.679Z,17.25
2018-12-29T12:39:56.849Z,17.21
2018-12-29T12:42:28.597Z,17.20
2018-12-29T12:45:00.223Z,17.17
2018-12-29T12:47:31.784Z,17.17
2018-12-29T12:50:03.553Z,17.14
2018-12-29T12:52:35.308Z,17.21
2018-12-29T12:55:06.821Z,17.21
2018-12-29T12:57:38.186Z,17.22
2018-12-29T13:00:10.357Z,17.22
2018-12-29T13:02:42.875Z,17.28
2018-12-29T13:05:14.228Z,17.28
2018-12-29T13:07:45.592Z,17.30
2018-12-29T13:10:16.972Z,17.30
2018-12-29T13:12:48.600Z,17.28
2018-12-29T13:15:21.747Z,17.33
2018-12-29T13:17:53.410Z,17.29
2018-12-29T13:20:25.141Z,17.26
2018-12-29T13:22:57.257Z,17.28
2018-12-29T13:25:29.150Z,17.27
2018-12-29T13:28:01.361Z,17.27
2018-12-29T13:30:32.837Z,17.26
2018-12-29T13:33:04.918Z,17.26
2018-12-29T13:35:36.477Z,17.26
2018-12-29T13:38:08.184Z,17.26
2018-12-29T13:40:41.069Z,17.23
2018-12-29T13:43:12.646Z,17.21
2018-12-29T13:45:44.339Z,17.21
2018-12-29T13:48:20.506Z,17.21
2018-12-29T13:50:49.374Z,17.21
2018-12-29T13:53:20.950Z,17.22
2018-12-29T13:55:52.273Z,17.20
2018-12-29T13:58:23.861Z,17.20
2018-12-29T14:00:55.774Z,17.17
2018-12-29T14:03:27.661Z,17.10
2018-12-29T14:05:59.304Z,17.15
2018-12-29T14:08:31.256Z,17.17
2018-12-29T14:11:03.314Z,17.17
2018-12-29T14:13:35.130Z,17.15
2018-12-29T14:16:07.102Z,17.13
2018-12-29T14:18:39.510Z,17.17
2018-12-29T14:21:11.845Z,17.17
2018-12-29T14:23:44.491Z,17.11
2018-12-29T14:26:16.074Z,17.11
2018-12-29T14:28:47.809Z,17.12
2018-12-29T14:31:19.459Z,17.13
2018-12-29T14:33:51.047Z,17.11
2018-12-29T14:36:23.133Z,17.13
2018-12-29T14:38:54.363Z,17.14
2018-12-29T14:41:26.412Z,17.14
2018-12-29T14:43:57.706Z,17.13
2018-12-29T14:46:29.418Z,17.13
2018-12-29T14:49:00.992Z,17.11
2018-12-29T14:51:32.461Z,17.11
2018-12-29T14:54:03.728Z,17.11
2018-12-29T14:56:35.306Z,17.00
2018-12-29T14:59:07.160Z,16.92
2018-12-29T15:01:38.844Z,16.63
2018-12-29T15:04:10.061Z,16.58
2018-12-29T15:06:41.575Z,16.06
2018-12-29T15:09:12.927Z,15.59
2018-12-29T15:11:44.754Z,15.59
2018-12-29T15:14:17.149Z,15.33
2018-12-29T15:16:49.495Z,15.31
2018-12-29T15:19:22.925Z,15.31
2018-12-29T15:21:54.477Z,15.33
2018-12-29T15:24:26.261Z,15.30
2018-12-29T15:26:57.728Z,15.30
2018-12-29T15:29:29.206Z,15.31
2018-12-29T15:32:00.648Z,15.31
2018-12-29T15:34:32.610Z,15.30
2018-12-29T15:37:04.059Z,15.31
2018-12-29T15:39:35.612Z,15.31
2018-12-29T15:42:07.501Z,15.33
2018-12-29T15:44:38.720Z,15.27
2018-12-29T15:47:10.440Z,15.17
2018-12-29T15:49:41.968Z,15.17
2018-12-29T15:52:13.445Z,15.16
2018-12-29T15:54:45.369Z,15.17
2018-12-29T15:57:16.862Z,15.17
2018-12-29T15:59:48.862Z,15.20
2018-12-29T16:02:20.366Z,15.10
2018-12-29T16:04:53.865Z,14.97
2018-12-29T16:07:26.151Z,14.97
2018-12-29T16:09:57.481Z,14.94
2018-12-29T16:12:29.194Z,15.03
2018-12-29T16:15:00.613Z,15.03
2018-12-29T16:17:32.367Z,15.03
2018-12-29T16:20:03.908Z,14.71
2018-12-29T16:22:35.223Z,14.56
2018-12-29T16:25:06.803Z,14.59
2018-12-29T16:27:38.552Z,14.68
2018-12-29T16:30:10.482Z,14.68
2018-12-29T16:32:42.373Z,14.78
2018-12-29T16:35:14.261Z,14.74
2018-12-29T16:37:45.744Z,14.68
2018-12-29T16:40:16.969Z,14.81
2018-12-29T16:42:48.977Z,14.81
2018-12-29T16:45:20.409Z,14.65
2018-12-29T16:47:51.742Z,14.65
2018-12-29T16:50:23.156Z,14.55
2018-12-29T16:52:54.580Z,14.70
2018-12-29T16:55:25.899Z,14.70
2018-12-29T16:57:57.484Z,14.67
2018-12-29T17:00:29.344Z,14.54
2018-12-29T17:03:01.182Z,14.54
2018-12-29T17:05:32.716Z,14.59
2018-12-29T17:08:04.481Z,14.58
2018-12-29T17:10:36.164Z,14.36
2018-12-29T17:13:08.141Z,14.40
2018-12-29T17:15:39.658Z,14.34
2018-12-29T17:18:11.470Z,14.26
2018-12-29T17:20:43.194Z,14.26
2018-12-29T17:23:14.655Z,14.24
2018-12-29T17:25:46.182Z,14.36
2018-12-29T17:28:17.580Z,14.36
2018-12-29T17:30:49.107Z,14.39
2018-12-29T17:33:20.467Z,14.33
2018-12-29T17:35:52.784Z,14.20
2018-12-29T17:38:24.590Z,14.16
2018-12-29T17:40:56.356Z,14.30
2018-12-29T17:43:28.492Z,14.30
2018-12-29T17:46:00.087Z,14.16
2018-12-29T17:48:31.474Z,14.19
2018-12-29T17:51:03.159Z,14.07
2018-12-29T17:53:34.843Z,14.07
2018-12-29T17:56:06.411Z,14.06
2018-12-29T17:58:37.999Z,14.07
2018-12-29T18:01:09.662Z,14.09
2018-12-29T18:03:40.971Z,14.09
2018-12-29T18:06:12.452Z,14.08
2018-12-29T18:08:43.615Z,14.09
2018-12-29T18:11:14.881Z,13.86
2018-12-29T18:13:46.991Z,13.86
2018-12-29T18:16:18.575Z,13.86
2018-12-29T18:18:50.224Z,13.85
2018-12-29T18:21:21.468Z,13.93
2018-12-29T18:23:53.064Z,13.91
2018-12-29T18:26:24.385Z,13.91
2018-12-29T18:28:56.074Z,13.89
2018-12-29T18:31:27.341Z,13.89
2018-12-29T18:33:58.775Z,13.82
2018-12-29T18:36:30.573Z,13.81
2018-12-29T18:39:02.944Z,13.77
2018-12-29T18:41:34.916Z,13.66
2018-12-29T18:44:07.507Z,13.77
2018-12-29T18:46:39.299Z,13.77
2018-12-29T18:49:10.694Z,13.75
2018-12-29T18:51:42.428Z,13.78
2018-12-29T18:54:13.906Z,13.75
2018-12-29T18:56:45.805Z,13.67
2018-12-29T18:59:18.005Z,13.67
2018-12-29T19:01:57.370Z,13.63
2018-12-29T19:04:22.756Z,13.58
2018-12-29T19:06:54.439Z,13.51
2018-12-29T19:09:25.785Z,13.55
2018-12-29T19:11:57.335Z,13.55
2018-12-29T19:14:29.165Z,13.46
2018-12-29T19:17:00.615Z,13.46
2018-12-29T19:19:32.319Z,13.48
2018-12-29T19:22:03.591Z,13.51
2018-12-29T19:24:34.915Z,13.48
2018-12-29T19:27:06.515Z,13.43
2018-12-29T19:29:38.160Z,13.43
2018-12-29T19:32:09.939Z,13.36
2018-12-29T19:34:41.900Z,13.43
2018-12-29T19:37:13.773Z,13.40
2018-12-29T19:39:45.747Z,13.40
2018-12-29T19:42:17.108Z,13.35
2018-12-29T19:44:49.026Z,13.41
2018-12-29T19:47:20.411Z,13.41
2018-12-29T19:49:53.788Z,13.34
2018-12-29T19:52:25.549Z,13.34
2018-12-29T19:54:56.876Z,13.35
2018-12-29T19:57:28.978Z,13.29
2018-12-29T20:00:00.397Z,13.22
2018-12-29T20:02:32.165Z,13.22
2018-12-29T20:05:03.904Z,13.31
2018-12-29T20:07:35.491Z,13.31
2018-12-29T20:10:07.248Z,13.27
2018-12-29T20:12:39.725Z,13.22
2018-12-29T20:15:11.449Z,13.22
2018-12-29T20:17:43.029Z,13.21
2018-12-29T20:20:14.398Z,13.16
2018-12-29T20:22:45.886Z,13.10
2018-12-29T20:25:17.552Z,13.07
2018-12-29T20:27:49.094Z,13.04
2018-12-29T20:30:20.588Z,13.11
2018-12-29T20:32:58.991Z,13.13
2018-12-29T20:35:24.928Z,12.93
2018-12-29T20:37:56.877Z,12.98
2018-12-29T20:40:28.979Z,13.06
2018-12-29T20:43:00.373Z,13.00
2018-12-29T20:45:32.060Z,12.93
2018-12-29T20:48:03.603Z,12.93
2018-12-29T20:50:34.944Z,12.91
2018-12-29T20:53:06.514Z,12.82
2018-12-29T20:55:37.884Z,12.77
2018-12-29T20:58:09.179Z,12.82
2018-12-29T21:00:40.722Z,12.84
2018-12-29T21:03:12.468Z,12.84
2018-12-29T21:05:43.805Z,12.77
2018-12-29T21:08:15.315Z,12.71
2018-12-29T21:10:46.522Z,12.73
2018-12-29T21:13:18.045Z,12.69
2018-12-29T21:15:49.835Z,12.72
2018-12-29T21:18:21.484Z,12.65
2018-12-29T21:20:52.724Z,12.65
2018-12-29T21:23:24.551Z,12.71
2018-12-29T21:25:55.803Z,12.74
2018-12-29T21:28:27.456Z,12.72
2018-12-29T21:30:59.020Z,12.60
2018-12-29T21:33:30.778Z,12.56
2018-12-29T21:36:02.043Z,12.53
2018-12-29T21:38:33.448Z,12.53
2018-12-29T21:41:05.449Z,12.48
2018-12-29T21:43:37.014Z,12.44
2018-12-29T21:46:09.014Z,12.44
2018-12-29T21:48:40.407Z,12.45
2018-12-29T21:51:11.751Z,12.46
2018-12-29T21:53:42.992Z,12.46
2018-12-29T21:56:14.689Z,12.47
2018-12-29T21:58:46.046Z,12.53
2018-12-29T22:01:17.526Z,12.53
2018-12-29T22:03:48.880Z,12.53
2018-12-29T22:06:21.821Z,12.53
2018-12-29T22:08:53.332Z,12.53
2018-12-29T22:11:24.997Z,12.56
2018-12-29T22:13:56.659Z,12.57
2018-12-29T22:16:28.488Z,12.48
2018-12-29T22:19:00.072Z,12.48
2018-12-29T22:21:31.786Z,12.39
2018-12-29T22:24:03.288Z,12.26
2018-12-29T22:26:35.007Z,12.27
2018-12-29T22:29:06.467Z,12.22
2018-12-29T22:31:37.925Z,12.30
2018-12-29T22:34:10.196Z,12.30
2018-12-29T22:36:41.725Z,12.22
2018-12-29T22:39:13.530Z,12.23
2018-12-29T22:41:45.456Z,12.23
2018-12-29T22:44:17.280Z,12.25
2018-12-29T22:46:49.439Z,12.25
2018-12-29T22:49:21.017Z,12.18
2018-12-29T22:51:52.436Z,12.06
2018-12-29T22:54:24.039Z,12.18
2018-12-29T22:56:56.025Z,12.13
2018-12-29T22:59:27.339Z,12.19
2018-12-29T23:01:58.929Z,12.07
2018-12-29T23:04:30.663Z,12.15
2018-12-29T23:07:02.362Z,12.15
2018-12-29T23:09:33.794Z,12.03
2018-12-29T23:12:06.423Z,12.03
2018-12-29T23:14:37.987Z,12.18
2018-12-29T23:17:10.349Z,12.15
2018-12-29T23:19:42.014Z,12.05
2018-12-29T23:22:13.564Z,12.18
2018-12-29T23:24:45.331Z,12.29
2018-12-29T23:27:17.086Z,12.32
2018-12-29T23:29:48.505Z,12.32
2018-12-29T23:32:19.886Z,12.39
2018-12-29T23:34:51.142Z,12.39
2018-12-29T23:37:22.578Z,12.30
2018-12-29T23:39:54.502Z,12.25
2018-12-29T23:42:25.895Z,12.25
2018-12-29T23:44:57.319Z,12.15
2018-12-29T23:47:29.542Z,12.29
2018-12-29T23:50:00.866Z,12.29
2018-12-29T23:52:32.352Z,12.35
2018-12-29T23:55:03.754Z,12.39
2018-12-29T23:57:35.313Z,12.29
